Time;durP1;ratioP1;P1;durP2;ratioP2;P2;SDS_P1;SDS_P2;PMS_P1;PMS_P2;Temp;Humidity;BMP_temperature;BMP_pressure;BME280_temperature;BME280_humidity;BME280_pressure;Samples;Min_cycle;Max_cycle;Signal;HPM_P1;HPM_P2
2022/11/28 00:01:30;;;;;;;32.90;19.00;;;6.20;82.40;;;;;;5122663;27;20222;-70
2022/11/28 00:03:58;;;;;;;23.23;15.23;;;6.20;82.40;;;;;;5123227;27;20321;-73
2022/11/28 00:06:27;;;;;;;29.42;17.20;;;6.30;82.10;;;;;;5122620;27;20200;-69
2022/11/28 00:08:59;;;;;;;26.30;17.08;;;6.30;81.90;;;;;;5121623;27;20259;-70
2022/11/28 00:11:27;;;;;;;24.73;16.38;;;6.30;81.90;;;;;;5115613;27;20269;-71
2022/11/28 00:13:55;;;;;;;25.17;16.88;;;6.30;82.00;;;;;;5115057;27;20270;-72
2022/11/28 00:16:24;;;;;;;28.90;16.65;;;6.30;82.10;;;;;;5122849;27;20217;-72
2022/11/28 00:18:53;;;;;;;31.10;18.92;;;6.40;82.10;;;;;;5122392;27;20198;-71
2022/11/28 00:21:22;;;;;;;27.90;17.33;;;6.40;82.20;;;;;;5121388;27;20217;-72
2022/11/28 00:23:51;;;;;;;30.55;19.55;;;6.50;82.10;;;;;;5123048;27;20202;-71
2022/11/28 00:26:23;;;;;;;29.48;18.83;;;6.50;82.00;;;;;;5123994;27;20203;-71
2022/11/28 00:28:51;;;;;;;31.38;18.35;;;6.50;81.90;;;;;;5121148;27;20690;-70
2022/11/28 00:31:22;;;;;;;31.95;20.63;;;6.50;81.90;;;;;;5123164;27;20742;-71
2022/11/28 00:33:50;;;;;;;32.97;20.45;;;6.50;81.60;;;;;;5120372;27;20213;-69
2022/11/28 00:36:19;;;;;;;33.78;19.73;;;6.50;81.60;;;;;;5122256;27;20214;-72
2022/11/28 00:38:48;;;;;;;26.77;18.10;;;6.50;81.70;;;;;;5121921;27;20674;-72
2022/11/28 00:41:17;;;;;;;30.85;19.35;;;6.50;81.60;;;;;;5119006;27;20229;-70
2022/11/28 00:43:48;;;;;;;27.33;17.92;;;6.50;81.40;;;;;;5120103;27;20216;-71
2022/11/28 00:46:17;;;;;;;31.05;18.50;;;6.40;81.20;;;;;;5122273;27;20209;-71
2022/11/28 00:48:45;;;;;;;32.00;19.25;;;6.30;81.20;;;;;;5121717;27;20206;-71
2022/11/28 00:51:15;;;;;;;30.63;19.40;;;6.20;81.40;;;;;;5122720;27;20226;-70
2022/11/28 00:53:46;;;;;;;28.35;17.50;;;6.20;81.60;;;;;;5124188;27;20201;-70
2022/11/28 00:56:16;;;;;;;28.92;17.67;;;6.20;81.80;;;;;;5125367;27;20213;-69
2022/11/28 00:58:44;;;;;;;37.72;20.67;;;6.30;81.90;;;;;;5123606;27;20198;-70
2022/11/28 01:01:16;;;;;;;34.95;18.83;;;6.30;81.70;;;;;;5124013;27;20965;-72
2022/11/28 01:03:45;;;;;;;28.98;17.75;;;6.30;81.70;;;;;;5120946;27;20229;-71
2022/11/28 01:06:20;;;;;;;30.25;18.33;;;6.30;81.60;;;;;;5125185;27;20193;-69
2022/11/28 01:08:47;;;;;;;29.23;18.50;;;6.30;81.40;;;;;;5124417;27;20202;-71
2022/11/28 01:11:15;;;;;;;32.63;18.83;;;6.20;81.40;;;;;;5124125;27;20226;-70
2022/11/28 01:13:43;;;;;;;32.97;19.58;;;6.10;81.50;;;;;;5122378;27;20649;-70
2022/11/28 01:16:13;;;;;;;31.58;18.10;;;6.00;81.50;;;;;;5122843;27;20811;-70
2022/11/28 01:18:41;;;;;;;31.60;19.10;;;6.00;81.60;;;;;;5123150;27;20202;-72
2022/11/28 01:21:09;;;;;;;29.52;18.55;;;5.90;81.70;;;;;;5123789;27;20241;-71
2022/11/28 01:23:38;;;;;;;30.15;19.95;;;5.90;81.80;;;;;;5124487;27;20202;-71
2022/11/28 01:26:15;;;;;;;36.67;20.85;;;5.80;81.80;;;;;;5123176;28;20194;-70
2022/11/28 01:28:44;;;;;;;31.58;20.05;;;5.80;82.00;;;;;;5122732;27;20212;-70
2022/11/28 01:31:16;;;;;;;35.97;20.02;;;5.80;82.10;;;;;;5123772;27;20234;-70
2022/11/28 01:33:44;;;;;;;30.20;19.27;;;5.80;82.20;;;;;;5126397;27;20868;-70
2022/11/28 01:36:14;;;;;;;29.77;18.58;;;5.80;82.30;;;;;;5126109;27;20201;-70
2022/11/28 01:38:42;;;;;;;32.45;20.35;;;5.80;82.30;;;;;;5126808;27;20664;-71
2022/11/28 01:41:11;;;;;;;33.47;20.15;;;5.80;82.30;;;;;;5123989;27;20218;-70
2022/11/28 01:44:01;;;;;;;31.48;20.02;;;5.80;82.40;;;;;;5128564;27;20202;-71
2022/11/28 01:46:32;;;;;;;30.67;19.50;;;5.80;82.40;;;;;;5125372;27;20254;-69
2022/11/28 01:49:06;;;;;;;33.85;21.33;;;5.90;82.40;;;;;;5125282;27;20201;-72
2022/11/28 01:51:35;;;;;;;32.70;21.30;;;5.90;82.50;;;;;;5126194;27;20360;-69
2022/11/28 01:54:03;;;;;;;40.60;21.35;;;5.90;82.40;;;;;;5140656;27;20698;-69
2022/11/28 01:56:40;;;;;;;34.78;20.77;;;5.90;82.40;;;;;;5126355;27;20266;-72
2022/11/28 01:59:11;;;;;;;36.30;21.33;;;5.90;82.40;;;;;;5128130;27;20230;-72
2022/11/28 02:01:42;;;;;;;32.30;19.65;;;5.90;82.50;;;;;;5126838;27;20238;-69
2022/11/28 02:04:10;;;;;;;32.08;19.95;;;5.90;82.40;;;;;;5126862;27;20201;-70
2022/11/28 02:06:38;;;;;;;38.88;20.33;;;5.90;82.40;;;;;;5124881;27;20210;-70
2022/11/28 02:09:09;;;;;;;33.20;20.90;;;5.90;82.40;;;;;;5125616;27;20212;-70
2022/11/28 02:12:06;;;;;;;36.28;21.75;;;5.80;82.40;;;;;;5124138;27;20632;-70
2022/11/28 02:14:49;;;;;;;33.30;19.65;;;5.80;82.60;;;;;;5127489;27;20197;-70
2022/11/28 02:17:24;;;;;;;36.22;20.92;;;5.80;82.60;;;;;;5126688;27;20697;-70
2022/11/28 02:20:30;;;;;;;39.85;22.35;;;5.80;82.60;;;;;;5125983;27;20560;-72
2022/11/28 02:23:04;;;;;;;34.55;20.70;;;5.80;82.60;;;;;;5123899;27;20213;-71
2022/11/28 02:25:57;;;;;;;37.30;20.67;;;5.80;82.60;;;;;;5126805;27;20194;-71
2022/11/28 02:28:49;;;;;;;37.35;21.67;;;5.80;82.60;;;;;;5126585;27;20190;-72
2022/11/28 02:31:32;;;;;;;35.28;20.35;;;5.80;82.70;;;;;;5126071;27;20601;-73
2022/11/28 02:34:08;;;;;;;34.63;20.38;;;5.80;82.70;;;;;;5126109;27;20214;-73
2022/11/28 02:36:42;;;;;;;36.28;21.13;;;5.80;82.70;;;;;;5125924;27;20193;-71
2022/11/28 02:39:16;;;;;;;37.45;20.63;;;5.80;82.80;;;;;;5126490;27;20312;-70
2022/11/28 02:41:50;;;;;;;32.80;20.02;;;5.80;82.80;;;;;;5126556;27;20220;-71
2022/11/28 02:44:21;;;;;;;30.90;19.10;;;5.90;82.90;;;;;;5125626;27;20206;-71
2022/11/28 02:46:54;;;;;;;32.10;19.77;;;5.90;82.80;;;;;;5128589;27;20741;-71
2022/11/28 02:49:30;;;;;;;36.45;20.40;;;5.90;82.70;;;;;;5123891;27;20278;-71
2022/11/28 02:52:02;;;;;;;32.13;19.88;;;5.90;82.70;;;;;;5123428;27;20236;-71
2022/11/28 02:54:31;;;;;;;35.60;18.92;;;5.90;82.70;;;;;;5125600;27;20254;-72
2022/11/28 02:56:59;;;;;;;35.58;20.73;;;5.90;82.70;;;;;;5126749;27;20198;-70
2022/11/28 02:59:43;;;;;;;36.78;21.10;;;5.90;82.60;;;;;;5127896;27;20816;-71
2022/11/28 03:02:15;;;;;;;38.28;21.42;;;5.80;82.60;;;;;;5125149;27;20225;-71
2022/11/28 03:04:55;;;;;;;37.00;22.17;;;5.80;82.60;;;;;;5121656;27;20205;-70
2022/11/28 03:07:36;;;;;;;39.33;21.85;;;5.80;82.70;;;;;;5127792;27;20202;-72
2022/11/28 03:10:14;;;;;;;40.15;21.63;;;5.80;82.70;;;;;;5123740;27;20711;-72
2022/11/28 03:12:56;;;;;;;39.58;21.92;;;5.70;82.80;;;;;;5126130;27;20221;-69
2022/11/28 03:15:30;;;;;;;38.00;21.60;;;5.70;82.80;;;;;;5127992;27;20825;-72
2022/11/28 03:18:06;;;;;;;34.03;21.17;;;5.70;82.80;;;;;;5124697;27;20706;-69
2022/11/28 03:20:45;;;;;;;37.75;21.95;;;5.70;82.80;;;;;;5125247;27;20201;-71
2022/11/28 03:23:17;;;;;;;40.47;23.88;;;5.70;82.80;;;;;;5124304;27;20201;-71
2022/11/28 03:25:56;;;;;;;35.55;21.48;;;5.70;82.80;;;;;;5122946;27;20205;-70
2022/11/28 03:28:30;;;;;;;39.58;22.27;;;5.70;83.00;;;;;;5125697;27;20197;-71
2022/11/28 03:31:02;;;;;;;35.38;20.65;;;5.70;83.00;;;;;;5123675;27;20376;-72
2022/11/28 03:33:34;;;;;;;44.47;23.80;;;5.70;83.10;;;;;;5125822;27;20229;-70
2022/11/28 03:36:07;;;;;;;39.13;21.48;;;5.70;83.00;;;;;;5122962;27;20203;-71
2022/11/28 03:38:39;;;;;;;32.92;20.67;;;5.60;83.10;;;;;;5122275;27;21022;-71
2022/11/28 03:41:12;;;;;;;40.65;22.13;;;5.70;83.10;;;;;;5126382;27;20753;-69
2022/11/28 03:43:44;;;;;;;38.55;21.08;;;5.60;83.10;;;;;;5122518;27;20201;-70
2022/11/28 03:46:15;;;;;;;37.53;22.65;;;5.60;83.10;;;;;;5123787;27;20211;-71
2022/11/28 03:48:47;;;;;;;36.65;21.13;;;5.60;83.10;;;;;;5124194;27;20768;-70
2022/11/28 03:51:20;;;;;;;36.40;20.30;;;5.60;83.20;;;;;;5126580;27;20228;-71
2022/11/28 03:53:54;;;;;;;33.08;20.02;;;5.60;83.20;;;;;;5123413;27;20662;-71
2022/11/28 03:56:30;;;;;;;39.35;21.65;;;5.60;83.30;;;;;;5126392;27;20690;-71
2022/11/28 03:59:01;;;;;;;37.28;21.73;;;5.60;83.30;;;;;;5120066;27;20213;-69
2022/11/28 04:01:34;;;;;;;36.80;22.25;;;5.60;83.40;;;;;;5125548;27;20764;-71
2022/11/28 04:04:14;;;;;;;39.55;21.67;;;5.60;83.40;;;;;;5123889;27;20210;-72
2022/11/28 04:06:53;;;;;;;36.70;20.92;;;5.70;83.60;;;;;;5124006;27;20290;-70
2022/11/28 04:09:35;;;;;;;34.40;20.30;;;5.80;83.70;;;;;;5125752;27;20204;-70
2022/11/28 04:12:09;;;;;;;34.97;20.63;;;5.90;83.70;;;;;;5121521;27;20277;-70
2022/11/28 04:14:45;;;;;;;45.28;25.98;;;6.00;83.60;;;;;;5122406;27;20198;-70
2022/11/28 04:17:17;;;;;;;38.63;21.35;;;6.10;83.30;;;;;;5122098;27;20205;-72
2022/11/28 04:19:49;;;;;;;40.33;21.10;;;6.00;83.10;;;;;;5125028;27;20583;-70
2022/11/28 04:22:21;;;;;;;38.58;22.60;;;6.00;83.00;;;;;;5123472;27;20224;-70
2022/11/28 04:24:53;;;;;;;38.33;20.42;;;6.00;83.00;;;;;;5125414;27;20210;-69
2022/11/28 04:27:30;;;;;;;40.65;22.58;;;6.00;82.80;;;;;;5124875;27;20604;-71
2022/11/28 04:30:00;;;;;;;37.33;21.45;;;6.00;82.90;;;;;;5123572;27;20194;-71
2022/11/28 04:32:31;;;;;;;37.13;22.40;;;5.90;82.90;;;;;;5125549;27;20226;-71
2022/11/28 04:35:04;;;;;;;35.67;20.25;;;5.90;83.10;;;;;;5122681;27;20294;-72
2022/11/28 04:37:35;;;;;;;38.47;21.33;;;5.90;83.10;;;;;;5124465;27;20204;-72
2022/11/28 04:40:05;;;;;;;34.33;20.80;;;5.90;83.10;;;;;;5125048;27;20686;-72
2022/11/28 04:42:39;;;;;;;37.67;22.15;;;5.90;82.90;;;;;;5122474;27;20221;-73
2022/11/28 04:45:12;;;;;;;36.70;21.92;;;5.90;83.10;;;;;;5125628;27;20194;-71
2022/11/28 04:47:40;;;;;;;36.25;20.95;;;5.90;83.20;;;;;;5121285;27;20210;-73
2022/11/28 04:50:09;;;;;;;46.25;23.65;;;5.90;83.30;;;;;;5126351;27;20785;-70
2022/11/28 04:52:44;;;;;;;36.45;21.45;;;6.00;83.30;;;;;;5125431;27;20217;-71
2022/11/28 04:55:18;;;;;;;37.40;21.13;;;6.00;83.30;;;;;;5126488;27;20568;-72
2022/11/28 04:57:49;;;;;;;36.85;23.60;;;6.10;83.30;;;;;;5126436;27;20214;-70
2022/11/28 05:00:25;;;;;;;40.95;22.58;;;6.20;83.20;;;;;;5126293;27;20213;-70
2022/11/28 05:02:54;;;;;;;37.42;21.17;;;6.20;83.00;;;;;;5122764;27;20225;-71
2022/11/28 05:05:27;;;;;;;35.28;21.95;;;6.20;82.90;;;;;;5126555;27;20945;-71
2022/11/28 05:07:58;;;;;;;37.10;22.13;;;6.20;82.90;;;;;;5124049;27;20202;-70
2022/11/28 05:10:27;;;;;;;41.42;22.45;;;6.20;83.00;;;;;;5126896;27;20190;-71
2022/11/28 05:12:55;;;;;;;38.15;22.20;;;6.20;82.80;;;;;;5123097;27;20255;-69
2022/11/28 05:15:23;;;;;;;36.65;20.65;;;6.10;82.60;;;;;;5124049;27;20205;-72
2022/11/28 05:17:51;;;;;;;41.60;22.88;;;6.10;82.60;;;;;;5123903;27;20205;-71
2022/11/28 05:20:19;;;;;;;37.40;20.95;;;6.10;82.70;;;;;;5125687;27;20633;-72
2022/11/28 05:22:47;;;;;;;39.00;23.60;;;6.10;82.90;;;;;;5127490;27;20222;-72
2022/11/28 05:25:16;;;;;;;35.42;20.85;;;6.10;82.70;;;;;;5126134;28;20197;-71
2022/11/28 05:27:44;;;;;;;37.42;21.50;;;6.00;82.60;;;;;;5123746;27;20205;-70
2022/11/28 05:30:13;;;;;;;38.45;20.90;;;6.00;82.50;;;;;;5131866;28;20198;-69
2022/11/28 05:32:41;;;;;;;38.08;21.55;;;5.90;82.70;;;;;;5131623;27;20218;-67
2022/11/28 05:35:09;;;;;;;40.35;23.10;;;6.00;83.00;;;;;;5132704;28;20198;-71
2022/11/28 05:37:37;;;;;;;47.30;26.23;;;6.00;82.80;;;;;;5131665;27;20205;-71
2022/11/28 05:40:07;;;;;;;50.58;27.90;;;6.00;82.60;;;;;;5132133;28;20202;-71
2022/11/28 05:42:36;;;;;;;46.90;26.55;;;6.00;82.60;;;;;;5133398;27;20213;-71
2022/11/28 05:45:05;;;;;;;46.60;26.50;;;5.90;82.70;;;;;;5132467;27;20202;-70
2022/11/28 05:47:34;;;;;;;46.05;25.40;;;5.90;82.60;;;;;;5133634;28;20284;-71
2022/11/28 05:50:02;;;;;;;38.10;22.98;;;5.90;82.70;;;;;;5131848;28;20210;-70
2022/11/28 05:52:31;;;;;;;40.35;23.85;;;5.90;82.80;;;;;;5133096;27;20232;-72
2022/11/28 05:55:00;;;;;;;46.38;25.67;;;5.90;82.90;;;;;;5129340;28;20218;-68
2022/11/28 05:57:30;;;;;;;41.67;24.02;;;5.90;82.80;;;;;;5130883;27;20245;-71
2022/11/28 06:00:00;;;;;;;47.75;26.48;;;6.00;82.80;;;;;;5130109;27;20214;-69
2022/11/28 06:02:38;;;;;;;43.92;25.95;;;6.00;82.80;;;;;;5130524;27;20230;-70
2022/11/28 06:05:06;;;;;;;45.55;24.88;;;5.90;82.60;;;;;;5124983;28;20643;-69
2022/11/28 06:07:54;;;;;;;46.17;25.60;;;5.90;82.60;;;;;;5118181;27;20288;-70
2022/11/28 06:10:23;;;;;;;47.35;26.77;;;5.90;82.60;;;;;;5122250;27;20209;-70
2022/11/28 06:12:51;;;;;;;44.55;25.27;;;5.80;82.50;;;;;;5122842;27;20233;-73
2022/11/28 06:15:20;;;;;;;41.20;22.80;;;5.80;82.40;;;;;;5126397;28;20974;-69
2022/11/28 06:17:48;;;;;;;38.53;22.40;;;5.70;82.60;;;;;;5124978;28;20279;-71
2022/11/28 06:20:16;;;;;;;45.97;25.40;;;5.70;82.80;;;;;;5129821;27;20206;-71
2022/11/28 06:22:46;;;;;;;47.80;27.70;;;5.70;82.90;;;;;;5129558;27;20230;-73
2022/11/28 06:25:15;;;;;;;40.63;24.05;;;5.70;82.90;;;;;;5130998;27;20255;-71
2022/11/28 06:27:43;;;;;;;44.10;26.42;;;5.70;82.80;;;;;;5130319;27;20205;-71
2022/11/28 06:30:11;;;;;;;41.58;23.58;;;5.80;82.80;;;;;;5128387;27;20194;-70
2022/11/28 06:32:40;;;;;;;49.00;23.85;;;5.80;82.80;;;;;;5130253;27;20221;-70
2022/11/28 06:35:09;;;;;;;39.75;23.35;;;5.80;82.90;;;;;;5129792;27;20639;-71
2022/11/28 06:37:37;;;;;;;42.78;23.58;;;5.80;83.20;;;;;;5127263;27;20296;-71
2022/11/28 06:40:06;;;;;;;38.85;22.48;;;5.90;83.10;;;;;;5129368;27;20263;-70
2022/11/28 06:42:35;;;;;;;38.63;22.30;;;6.00;83.00;;;;;;5128271;27;20221;-70
2022/11/28 06:45:03;;;;;;;39.88;21.23;;;6.00;82.90;;;;;;5119457;27;20328;-71
2022/11/28 06:47:32;;;;;;;45.65;22.67;;;6.10;82.90;;;;;;5130092;27;20225;-71
2022/11/28 06:50:01;;;;;;;52.55;29.75;;;6.10;82.80;;;;;;5125154;27;20210;-70
2022/11/28 06:52:29;;;;;;;46.40;27.27;;;6.10;82.70;;;;;;5128223;27;21000;-70
2022/11/28 06:54:57;;;;;;;45.53;26.70;;;6.10;82.70;;;;;;5128682;27;20209;-72
2022/11/28 06:57:25;;;;;;;43.28;24.60;;;6.10;82.70;;;;;;5127879;27;20866;-69
2022/11/28 06:59:53;;;;;;;41.08;22.67;;;6.10;82.70;;;;;;5128537;27;20221;-70
2022/11/28 07:02:23;;;;;;;38.67;22.67;;;6.10;82.60;;;;;;5128198;27;20309;-70
2022/11/28 07:04:52;;;;;;;40.65;25.40;;;6.10;82.60;;;;;;5126850;27;20202;-71
2022/11/28 07:07:21;;;;;;;38.85;21.23;;;6.10;82.50;;;;;;5126864;27;20202;-71
2022/11/28 07:09:50;;;;;;;42.33;24.90;;;6.10;82.40;;;;;;5124899;27;20644;-72
2022/11/28 07:12:19;;;;;;;38.10;23.23;;;6.00;82.40;;;;;;5125064;27;20210;-70
2022/11/28 07:14:47;;;;;;;70.15;33.97;;;6.00;82.30;;;;;;5125549;27;20208;-70
2022/11/28 07:17:15;;;;;;;116.65;51.22;;;6.00;82.50;;;;;;5126556;27;20202;-70
2022/11/28 07:19:43;;;;;;;195.90;83.97;;;6.00;82.60;;;;;;5126068;27;20278;-70
2022/11/28 07:22:13;;;;;;;229.70;104.15;;;6.00;82.50;;;;;;5126537;27;20218;-70
2022/11/28 07:24:42;;;;;;;60.47;30.55;;;6.00;82.60;;;;;;5125352;27;20679;-70
2022/11/28 07:27:10;;;;;;;37.25;22.27;;;6.00;82.50;;;;;;5123648;27;20194;-70
2022/11/28 07:29:38;;;;;;;41.45;21.67;;;6.00;82.20;;;;;;5126120;27;20209;-72
2022/11/28 07:32:07;;;;;;;40.55;22.52;;;5.90;82.20;;;;;;5124546;27;20228;-72
2022/11/28 07:34:35;;;;;;;45.47;23.75;;;5.90;82.40;;;;;;5125713;27;20229;-72
2022/11/28 07:37:03;;;;;;;41.10;22.75;;;5.80;82.60;;;;;;5122377;27;20683;-69
2022/11/28 07:39:31;;;;;;;43.85;22.50;;;5.90;82.70;;;;;;5124081;27;20210;-69
2022/11/28 07:42:00;;;;;;;40.28;23.02;;;5.90;82.70;;;;;;5125754;27;20257;-72
2022/11/28 07:44:28;;;;;;;42.75;23.77;;;6.00;82.60;;;;;;5127067;27;20213;-71
2022/11/28 07:46:56;;;;;;;45.45;26.08;;;6.00;82.50;;;;;;5123069;27;20194;-70
2022/11/28 07:49:24;;;;;;;40.45;24.30;;;6.00;82.40;;;;;;5123874;27;20285;-70
2022/11/28 07:51:52;;;;;;;42.75;23.30;;;6.00;82.50;;;;;;5124991;27;20226;-69
2022/11/28 07:54:20;;;;;;;37.85;22.60;;;5.90;82.40;;;;;;5125818;27;20935;-70
2022/11/28 07:56:48;;;;;;;48.33;26.42;;;5.90;82.40;;;;;;5122767;27;20202;-70
2022/11/28 07:59:37;;;;;;;44.40;26.90;;;5.90;82.50;;;;;;5125176;27;20210;-69
2022/11/28 08:02:05;;;;;;;47.47;24.40;;;5.90;82.40;;;;;;5126921;27;20221;-69
2022/11/28 08:04:34;;;;;;;38.50;23.83;;;5.90;82.50;;;;;;5126012;27;20212;-71
2022/11/28 08:07:02;;;;;;;43.83;27.48;;;5.90;82.60;;;;;;5124205;27;20221;-69
2022/11/28 08:09:31;;;;;;;45.45;28.23;;;6.00;82.70;;;;;;5127519;27;20202;-72
2022/11/28 08:11:59;;;;;;;51.70;27.25;;;6.00;82.70;;;;;;5121633;27;20303;-69
2022/11/28 08:14:27;;;;;;;44.13;23.25;;;6.10;82.60;;;;;;5126890;27;20194;-70
2022/11/28 08:16:56;;;;;;;43.42;25.23;;;6.10;82.50;;;;;;5123167;27;20251;-70
2022/11/28 08:19:24;;;;;;;52.70;30.65;;;6.10;82.60;;;;;;5126048;27;20202;-71
2022/11/28 08:21:56;;;;;;;51.95;29.73;;;6.10;82.60;;;;;;5122948;27;20230;-72
2022/11/28 08:24:24;;;;;;;46.03;26.58;;;6.20;82.50;;;;;;5125577;27;20194;-70
2022/11/28 08:26:52;;;;;;;50.72;27.75;;;6.10;82.50;;;;;;5117874;27;20224;-71
2022/11/28 08:29:20;;;;;;;46.83;25.50;;;6.20;82.60;;;;;;5127012;27;20205;-69
2022/11/28 08:31:48;;;;;;;47.78;26.50;;;6.20;82.40;;;;;;5125155;27;20221;-74
2022/11/28 08:34:17;;;;;;;59.90;33.67;;;6.20;82.30;;;;;;5126432;27;20202;-69
2022/11/28 08:36:46;;;;;;;57.22;32.08;;;6.10;82.20;;;;;;5126402;27;20202;-70
2022/11/28 08:39:14;;;;;;;47.67;27.25;;;6.10;82.40;;;;;;5127251;27;20202;-70
2022/11/28 08:41:52;;;;;;;50.60;25.52;;;6.10;82.60;;;;;;5122394;27;20229;-71
2022/11/28 08:44:20;;;;;;;52.63;26.85;;;6.20;82.60;;;;;;5122567;27;20198;-69
2022/11/28 08:46:48;;;;;;;43.55;24.13;;;6.20;82.60;;;;;;5124314;27;20202;-74
2022/11/28 08:49:17;;;;;;;43.47;23.73;;;6.20;82.50;;;;;;5124676;27;20201;-71
2022/11/28 08:51:45;;;;;;;42.85;25.70;;;6.20;82.50;;;;;;5125995;27;20217;-71
2022/11/28 08:54:13;;;;;;;62.92;34.63;;;6.20;82.50;;;;;;5126023;27;20508;-70
2022/11/28 08:56:47;;;;;;;80.63;45.38;;;6.20;82.30;;;;;;5123368;27;20209;-70
2022/11/28 08:59:15;;;;;;;48.50;28.45;;;6.20;82.30;;;;;;5125830;27;20196;-70
2022/11/28 09:01:43;;;;;;;45.75;26.75;;;6.10;82.20;;;;;;5126125;27;20246;-71
2022/11/28 09:04:11;;;;;;;45.22;26.65;;;6.10;82.30;;;;;;5126179;27;20275;-69
2022/11/28 09:06:41;;;;;;;52.53;28.23;;;6.10;82.30;;;;;;5122713;27;20309;-71
2022/11/28 09:09:09;;;;;;;51.38;27.77;;;6.10;82.40;;;;;;5122348;27;20194;-71
2022/11/28 09:11:37;;;;;;;46.85;26.42;;;6.10;82.40;;;;;;5121773;27;20234;-70
2022/11/28 09:14:05;;;;;;;46.25;27.77;;;6.10;82.50;;;;;;5121927;27;20206;-71
2022/11/28 09:16:33;;;;;;;57.25;31.92;;;6.10;82.60;;;;;;5123375;27;20210;-70
2022/11/28 09:19:01;;;;;;;61.63;33.38;;;6.10;82.60;;;;;;5123285;27;20198;-71
2022/11/28 09:21:29;;;;;;;50.75;28.48;;;6.10;82.40;;;;;;5124989;27;20230;-70
2022/11/28 09:23:59;;;;;;;47.15;24.85;;;6.10;82.30;;;;;;5122215;28;20202;-70
2022/11/28 09:26:28;;;;;;;49.67;26.77;;;6.10;82.40;;;;;;5138705;27;20727;-71
2022/11/28 09:28:56;;;;;;;47.70;25.48;;;6.10;82.40;;;;;;5122861;27;20217;-70
2022/11/28 09:31:25;;;;;;;50.60;26.73;;;6.00;82.30;;;;;;5123045;27;20296;-70
2022/11/28 09:33:53;;;;;;;55.35;28.80;;;6.00;82.40;;;;;;5124643;27;20214;-71
2022/11/28 09:36:23;;;;;;;53.58;28.42;;;6.00;82.50;;;;;;5125664;27;20201;-70
2022/11/28 09:38:51;;;;;;;47.47;26.48;;;6.00;82.50;;;;;;5122777;28;20206;-70
2022/11/28 09:41:44;;;;;;;46.50;26.10;;;5.90;82.60;;;;;;5124634;27;20590;-71
2022/11/28 09:44:21;;;;;;;43.72;24.40;;;6.00;82.70;;;;;;5121870;27;20229;-70
2022/11/28 09:46:52;;;;;;;48.00;25.70;;;5.90;82.60;;;;;;5110569;28;20206;-71
2022/11/28 09:49:29;;;;;;;50.13;29.63;;;5.90;82.60;;;;;;5122596;27;20198;-71
2022/11/28 09:52:16;;;;;;;40.03;24.55;;;6.00;82.70;;;;;;5120119;27;20217;-69
2022/11/28 09:54:51;;;;;;;49.83;27.35;;;6.00;82.80;;;;;;5124019;27;20675;-71
2022/11/28 09:57:28;;;;;;;41.10;24.05;;;6.00;82.70;;;;;;5127894;27;20296;-69
2022/11/28 09:59:56;;;;;;;49.30;28.92;;;6.00;82.80;;;;;;5124468;27;20587;-69
2022/11/28 10:02:29;;;;;;;48.90;25.00;;;6.00;82.80;;;;;;5125654;27;20225;-69
2022/11/28 10:05:10;;;;;;;46.40;25.20;;;6.00;82.90;;;;;;5115770;27;20221;-69
2022/11/28 10:07:47;;;;;;;49.13;27.00;;;6.10;82.90;;;;;;5123709;27;20209;-69
2022/11/28 10:10:32;;;;;;;53.88;27.23;;;6.10;82.90;;;;;;5127369;27;20200;-69
2022/11/28 10:13:08;;;;;;;48.95;28.98;;;6.10;83.00;;;;;;5124383;27;20305;-69
2022/11/28 10:15:51;;;;;;;58.08;30.45;;;6.20;83.00;;;;;;5125330;27;20251;-69
2022/11/28 10:18:31;;;;;;;48.58;26.75;;;6.20;83.00;;;;;;5125377;27;20202;-70
2022/11/28 10:21:03;;;;;;;49.33;26.10;;;6.30;83.00;;;;;;5123498;27;20233;-72
2022/11/28 10:23:37;;;;;;;46.28;25.00;;;6.30;82.90;;;;;;5129133;27;20209;-70
2022/11/28 10:26:08;;;;;;;41.92;24.67;;;6.30;82.80;;;;;;5129287;27;20193;-70
2022/11/28 10:28:42;;;;;;;48.17;28.02;;;6.30;82.80;;;;;;5128116;27;20217;-71
2022/11/28 10:31:15;;;;;;;63.20;32.00;;;6.30;82.90;;;;;;5128567;27;20294;-72
2022/11/28 10:33:49;;;;;;;46.85;26.27;;;6.40;82.90;;;;;;5125857;27;20221;-70
2022/11/28 10:36:24;;;;;;;44.22;25.83;;;6.40;82.80;;;;;;5125337;27;20686;-69
2022/11/28 10:38:52;;;;;;;71.50;35.63;;;6.40;82.90;;;;;;5128301;27;20201;-69
2022/11/28 10:41:28;;;;;;;68.15;31.05;;;6.40;83.00;;;;;;5127307;27;20218;-71
2022/11/28 10:44:02;;;;;;;44.33;24.70;;;6.50;82.90;;;;;;5127020;27;20194;-70
2022/11/28 10:46:45;;;;;;;49.67;25.02;;;6.50;82.90;;;;;;5127510;27;20205;-69
2022/11/28 10:49:26;;;;;;;44.47;25.10;;;6.60;83.00;;;;;;5128385;27;20229;-69
2022/11/28 10:52:03;;;;;;;50.30;28.38;;;6.60;82.90;;;;;;5127677;27;20222;-71
2022/11/28 10:54:52;;;;;;;52.72;29.88;;;6.70;82.90;;;;;;5128248;27;20204;-70
2022/11/28 10:57:23;;;;;;;50.70;28.63;;;6.70;82.80;;;;;;5123801;27;20194;-70
2022/11/28 11:00:02;;;;;;;45.10;25.08;;;6.70;82.90;;;;;;5127598;27;20197;-72
2022/11/28 11:02:37;;;;;;;47.38;24.90;;;6.80;82.90;;;;;;5128458;27;20217;-70
2022/11/28 11:05:06;;;;;;;37.33;21.13;;;6.80;82.90;;;;;;5127527;27;20197;-72
2022/11/28 11:07:34;;;;;;;50.53;24.58;;;6.90;82.80;;;;;;5128572;27;20194;-69
2022/11/28 11:10:14;;;;;;;44.70;25.20;;;6.90;82.60;;;;;;5127727;27;20691;-69
2022/11/28 11:12:44;;;;;;;39.28;21.77;;;6.90;82.30;;;;;;5128040;27;20241;-71
2022/11/28 11:15:19;;;;;;;38.00;21.13;;;6.80;82.40;;;;;;5128500;27;20202;-71
2022/11/28 11:17:49;;;;;;;30.88;17.90;;;6.90;82.40;;;;;;5128139;27;20209;-75
2022/11/28 11:20:34;;;;;;;43.00;24.65;;;6.80;82.60;;;;;;5127230;27;20277;-71
2022/11/28 11:23:12;;;;;;;45.80;23.15;;;6.90;82.70;;;;;;5127225;27;20222;-69
2022/11/28 11:25:49;;;;;;;43.03;24.73;;;6.90;82.60;;;;;;5127751;27;20232;-73
2022/11/28 11:28:49;;;;;;;32.80;19.25;;;6.90;82.30;;;;;;5117127;27;20207;-70
2022/11/28 11:31:22;;;;;;;32.45;19.90;;;6.90;82.20;;;;;;5122031;27;20248;-71
2022/11/28 11:33:53;;;;;;;32.40;19.40;;;6.90;82.20;;;;;;5127592;27;20202;-72
2022/11/28 11:36:27;;;;;;;34.67;20.17;;;6.90;82.30;;;;;;5126474;27;20206;-72
2022/11/28 11:39:07;;;;;;;31.33;19.88;;;6.90;82.60;;;;;;5127042;27;20197;-71
2022/11/28 11:41:35;;;;;;;33.22;19.90;;;7.00;82.60;;;;;;5127364;27;20745;-72
2022/11/28 11:44:28;;;;;;;44.97;25.70;;;7.00;82.60;;;;;;5126437;27;20205;-72
2022/11/28 11:47:03;;;;;;;41.25;24.20;;;7.00;82.40;;;;;;5127664;27;20227;-69
2022/11/28 11:49:40;;;;;;;38.55;22.35;;;7.10;82.20;;;;;;5126724;27;20197;-74
2022/11/28 11:52:17;;;;;;;35.95;21.30;;;7.10;82.20;;;;;;5111263;27;20616;-74
2022/11/28 11:55:02;;;;;;;37.35;21.92;;;7.10;82.30;;;;;;5040467;28;20234;-73
2022/11/28 11:57:35;;;;;;;31.30;19.45;;;7.10;82.40;;;;;;5057782;28;20204;-74
2022/11/28 12:00:07;;;;;;;30.25;18.13;;;7.20;82.30;;;;;;5056884;28;20206;-73
2022/11/28 12:02:45;;;;;;;32.60;18.20;;;7.20;82.30;;;;;;5059292;28;20227;-72
2022/11/28 12:05:16;;;;;;;32.10;18.27;;;7.20;82.10;;;;;;5057310;28;20279;-70
2022/11/28 12:07:54;;;;;;;46.13;22.40;;;7.20;82.00;;;;;;5054723;28;20211;-72
2022/11/28 12:10:26;;;;;;;34.38;19.23;;;7.20;81.60;;;;;;5051365;28;20237;-72
2022/11/28 12:12:55;;;;;;;35.67;20.38;;;7.10;81.80;;;;;;5056701;28;21184;-69
2022/11/28 12:15:32;;;;;;;30.85;19.33;;;7.10;81.90;;;;;;5058438;28;20208;-72
2022/11/28 12:18:17;;;;;;;31.60;17.77;;;7.10;81.90;;;;;;5054949;28;20193;-68
2022/11/28 12:20:59;;;;;;;34.70;21.23;;;7.10;82.00;;;;;;5055842;28;20204;-71
2022/11/28 12:23:39;;;;;;;38.78;24.42;;;7.20;82.00;;;;;;5056462;28;20770;-74
2022/11/28 12:26:17;;;;;;;40.15;24.45;;;7.20;82.00;;;;;;5053165;28;20220;-74
2022/11/28 12:29:01;;;;;;;38.15;23.17;;;7.20;82.00;;;;;;5060645;28;21007;-73
2022/11/28 12:31:43;;;;;;;43.50;24.63;;;7.20;81.90;;;;;;5057395;28;20232;-72
2022/11/28 12:34:23;;;;;;;29.23;17.58;;;7.30;81.80;;;;;;5072234;28;20223;-72
2022/11/28 12:37:01;;;;;;;27.40;17.20;;;7.30;81.80;;;;;;5057583;28;20203;-71
2022/11/28 12:39:44;;;;;;;30.13;17.60;;;7.30;81.80;;;;;;5059238;28;20278;-69
2022/11/28 12:42:24;;;;;;;28.48;16.85;;;7.30;81.80;;;;;;5058013;28;20231;-71
2022/11/28 12:45:16;;;;;;;32.85;18.77;;;7.30;81.80;;;;;;5054608;28;20673;-71
2022/11/28 12:47:54;;;;;;;48.45;27.20;;;7.40;81.80;;;;;;5074400;28;20211;-71
2022/11/28 12:50:31;;;;;;;56.20;30.50;;;7.40;81.60;;;;;;5058157;28;20219;-73
2022/11/28 12:53:16;;;;;;;42.78;24.65;;;7.40;81.50;;;;;;5057983;28;20375;-70
2022/11/28 12:55:50;;;;;;;42.97;25.55;;;7.40;81.40;;;;;;5057843;28;20215;-73
2022/11/28 12:58:24;;;;;;;39.85;24.55;;;7.40;81.40;;;;;;5057012;28;20200;-72
2022/11/28 13:01:14;;;;;;;63.05;33.95;;;7.40;81.40;;;;;;5051553;28;20205;-72
2022/11/28 13:04:01;;;;;;;34.78;21.50;;;7.40;81.40;;;;;;5054246;28;20219;-72